createdAt,value
2022-10-05T00:05:56.032Z,38.63
2022-10-05T00:13:53.918Z,38.71
2022-10-05T00:21:40.353Z,38.63
2022-10-05T00:29:24.463Z,38.7
2022-10-05T00:37:05.291Z,38.86
2022-10-05T00:45:09.593Z,38.78
2022-10-05T00:53:16.283Z,39.1
2022-10-05T01:01:28.521Z,39.3
2022-10-05T01:09:30.293Z,39.26
2022-10-05T01:17:47.682Z,39.21
2022-10-05T01:25:57.510Z,39.25
2022-10-05T01:34:12.180Z,39.24
2022-10-05T01:42:40.065Z,38.96
2022-10-05T01:50:40.494Z,38.99
2022-10-05T01:58:56.013Z,39.26
2022-10-05T02:07:13.711Z,39.18
2022-10-05T02:15:24.071Z,39.08
2022-10-05T02:23:40.248Z,39.2
2022-10-05T02:31:53.718Z,39.21
2022-10-05T02:40:18.612Z,39.33
2022-10-05T02:48:21.542Z,39.36
2022-10-05T02:56:50.749Z,39.33
2022-10-05T03:05:32.643Z,39.31
2022-10-05T03:13:57.634Z,39.3
2022-10-05T03:22:21.401Z,39.35
2022-10-05T03:30:44.213Z,39.28
2022-10-05T03:39:10.820Z,39.29
2022-10-05T03:47:30.552Z,39.32
2022-10-05T03:55:54.929Z,39.27
2022-10-05T04:04:24.207Z,39.23
2022-10-05T04:12:40.148Z,39.25
2022-10-05T04:21:00.242Z,39.26
2022-10-05T04:29:27.263Z,39.21
2022-10-05T04:37:47.013Z,39.17
2022-10-05T04:46:02.951Z,39
2022-10-05T04:54:21.665Z,39.33
2022-10-05T05:02:46.648Z,39.32
2022-10-05T05:11:19.076Z,39.3
2022-10-05T05:19:43.217Z,39.32
2022-10-05T05:28:10.468Z,39.29
2022-10-05T05:36:26.708Z,39.19
2022-10-05T05:44:40.261Z,39.22
2022-10-05T05:53:01.835Z,39.32
2022-10-05T06:01:33.105Z,39.28
2022-10-05T06:09:51.202Z,39.13
2022-10-05T06:18:29.706Z,39.18
2022-10-05T06:26:36.186Z,39.23
2022-10-05T06:34:58.199Z,39.15
2022-10-05T06:43:17.165Z,39.21
2022-10-05T06:51:32.492Z,39.19
2022-10-05T07:00:02.982Z,39.1
2022-10-05T07:08:23.246Z,39.21
2022-10-05T07:16:54.794Z,39.07
2022-10-05T07:25:24.321Z,39.05
2022-10-05T07:33:42.929Z,39.14
2022-10-05T07:42:01.826Z,39.29
2022-10-05T07:50:21.994Z,39.37
2022-10-05T07:58:56.394Z,39.34
2022-10-05T08:07:15.393Z,39.31
2022-10-05T08:15:28.673Z,39.33
2022-10-05T08:23:48.456Z,39.35
2022-10-05T08:32:13.919Z,39.34
2022-10-05T08:40:35.213Z,39.25
2022-10-05T08:48:55.864Z,39.33
2022-10-05T08:57:05.225Z,39.19
2022-10-05T09:05:27.002Z,39.18
2022-10-05T09:13:41.759Z,39.11
2022-10-05T09:21:53.060Z,39.05
2022-10-05T09:30:15.133Z,39.01
2022-10-05T09:38:25.704Z,39.13
2022-10-05T09:46:50.202Z,39.2
2022-10-05T09:55:11.075Z,39.07
2022-10-05T10:03:29.776Z,39.3
2022-10-05T10:11:30.901Z,39.22
2022-10-05T10:20:02.216Z,39.23
2022-10-05T10:28:34.503Z,39.05
2022-10-05T10:36:39.892Z,39.19
2022-10-05T10:45:01.103Z,39.21
2022-10-05T10:53:13.705Z,39.06
2022-10-05T11:01:18.521Z,38.82
2022-10-05T11:09:19.891Z,38.9
2022-10-05T11:17:21.528Z,39.07
2022-10-05T11:25:50.290Z,39.2
2022-10-05T11:34:18.978Z,39.3
2022-10-05T11:42:41.753Z,39.25
2022-10-05T11:50:59.370Z,39.27
2022-10-05T11:59:31.936Z,39.22
2022-10-05T12:08:03.493Z,39.28
2022-10-05T12:16:23.947Z,39.04
2022-10-05T12:24:40.741Z,39.04
2022-10-05T12:33:02.136Z,39.13
2022-10-05T12:41:03.339Z,38.9
2022-10-05T12:49:24.093Z,38.78
2022-10-05T12:57:44.566Z,38.76
2022-10-05T13:05:43.481Z,38.89
2022-10-05T13:13:26.119Z,38.72
2022-10-05T13:21:32.901Z,38.55
2022-10-05T13:29:59.428Z,38.31
2022-10-05T13:38:21.179Z,38.27
2022-10-05T13:46:40.669Z,38.05
2022-10-05T13:54:58.225Z,38.03
2022-10-05T14:03:06.520Z,37.6
2022-10-05T14:11:33.844Z,37.65
2022-10-05T14:19:56.548Z,37.57
2022-10-05T14:27:59.246Z,37.41
2022-10-05T14:35:58.654Z,37.37
2022-10-05T14:44:09.336Z,37.53
2022-10-05T14:52:20.409Z,37.35
2022-10-05T15:00:29.297Z,37.21
2022-10-05T15:08:51.487Z,37.27
2022-10-05T15:17:05.350Z,37.29
2022-10-05T15:25:30.462Z,37.41
2022-10-05T15:33:27.045Z,37.63
2022-10-05T15:41:42.937Z,37.98
2022-10-05T15:49:55.029Z,38.24
2022-10-05T15:58:08.096Z,38.25
2022-10-05T16:06:08.737Z,38.51
2022-10-05T16:14:05.802Z,38.82
2022-10-05T16:22:01.869Z,38.77
2022-10-05T16:30:31.650Z,38.99
2022-10-05T16:38:53.401Z,39
2022-10-05T16:47:01.933Z,39.11
2022-10-05T16:55:19.173Z,39.12
2022-10-05T17:03:32.733Z,39.22
2022-10-05T17:11:49.024Z,39.31
2022-10-05T17:19:51.274Z,39.3
2022-10-05T17:28:02.436Z,39.31
2022-10-05T17:36:01.799Z,39.4
2022-10-05T17:44:16.781Z,39.43
2022-10-05T17:52:29.958Z,39.44
2022-10-05T18:00:43.124Z,39.38
2022-10-05T18:08:56.229Z,39.28
2022-10-05T18:16:54.976Z,38.93
2022-10-05T18:24:58.485Z,38.95
2022-10-05T18:33:11.160Z,39.01
2022-10-05T18:41:23.416Z,38.88
2022-10-05T18:49:40.962Z,38.94
2022-10-05T18:58:00.932Z,38.87
2022-10-05T19:06:34.619Z,39.32
2022-10-05T19:14:46.361Z,39.24
2022-10-05T19:22:52.129Z,39.43
2022-10-05T19:31:00.226Z,39.64
2022-10-05T19:39:19.389Z,39.65
2022-10-05T19:47:26.087Z,39.68
2022-10-05T19:55:52.865Z,39.5
2022-10-05T20:03:57.037Z,39.74
2022-10-05T20:12:00.158Z,39.71
2022-10-05T20:20:09.218Z,39.76
2022-10-05T20:28:16.249Z,39.73
2022-10-05T20:35:58.172Z,39.69
2022-10-05T20:43:41.126Z,39.66
2022-10-05T20:51:12.744Z,39.63
2022-10-05T20:58:51.220Z,39.7
2022-10-05T21:06:17.476Z,39.76
2022-10-05T21:13:47.062Z,39.64
2022-10-05T21:21:35.016Z,39.43
2022-10-05T21:29:15.151Z,39.45
2022-10-05T21:36:47.391Z,39.58
2022-10-05T21:44:20.992Z,39.51
2022-10-05T21:52:03.581Z,39.27
2022-10-05T21:59:54.174Z,39.15
2022-10-05T22:07:43.267Z,39.17
2022-10-05T22:15:34.295Z,39.23
2022-10-05T22:23:33.028Z,39.33
2022-10-05T22:31:29.632Z,39.32
2022-10-05T22:38:56.245Z,39.59
2022-10-05T22:46:37.658Z,39.54
2022-10-05T22:54:17.678Z,39.3
2022-10-05T23:01:55.690Z,39.32
2022-10-05T23:09:42.648Z,39.34
2022-10-05T23:17:42.784Z,39.34
2022-10-05T23:25:14.498Z,39.3
2022-10-05T23:33:04.882Z,39.22
2022-10-05T23:41:00.875Z,39.2
2022-10-05T23:48:40.642Z,39.14
2022-10-05T23:56:17.466Z,39.44
